Time;durP1;ratioP1;P1;durP2;ratioP2;P2;SDS_P1;SDS_P2;PMS_P1;PMS_P2;Temp;Humidity;BMP_temperature;BMP_pressure;BME280_temperature;BME280_humidity;BME280_pressure;Samples;Min_cycle;Max_cycle;Signal;HPM_P1;HPM_P2
2022/04/12 00:00:00;;;;;;;38.40;7.90;;;;;;;;;;5076819;28;20047;-75
2022/04/12 00:02:28;;;;;;;30.45;7.03;;;;;;;;;;5090420;28;20462;-80
2022/04/12 00:04:53;;;;;;;46.60;7.90;;;;;;;;;;5063406;28;20232;-81
2022/04/12 00:07:22;;;;;;;33.58;7.60;;;;;;;;;;5078813;28;20039;-81
2022/04/12 00:09:47;;;;;;;44.25;7.45;;;;;;;;;;5079490;28;20171;-81
2022/04/12 00:12:16;;;;;;;36.55;7.30;;;;;;;;;;5079169;28;20016;-81
2022/04/12 00:14:42;;;;;;;36.40;8.23;;;;;;;;;;5079535;28;20259;-81
2022/04/12 00:19:52;;;;;;;47.08;7.47;;;;;;;;;;5079905;28;20019;-81
2022/04/12 00:22:18;;;;;;;43.20;7.28;;;;;;;;;;5082634;28;20024;-81
2022/04/12 00:24:43;;;;;;;51.42;7.55;;;;;;;;;;5064846;28;20040;-82
2022/04/12 00:27:09;;;;;;;36.13;7.60;;;;;;;;;;5084362;28;20055;-82
2022/04/12 00:29:34;;;;;;;40.17;6.97;;;;;;;;;;5079027;28;20017;-82
2022/04/12 00:32:00;;;;;;;22.33;6.10;;;;;;;;;;5099673;27;20027;-82
2022/04/12 00:34:26;;;;;;;26.33;6.57;;;;;;;;;;5065819;28;20268;-76
2022/04/12 00:36:51;;;;;;;50.00;7.80;;;;;;;;;;5097896;27;20032;-76
2022/04/12 00:39:17;;;;;;;40.17;7.85;;;;;;;;;;5075056;28;20031;-75
2022/04/12 00:41:43;;;;;;;43.08;8.18;;;;;;;;;;5098872;27;20024;-75
2022/04/12 00:44:09;;;;;;;42.28;8.18;;;;;;;;;;5062552;28;20043;-76
2022/04/12 00:46:34;;;;;;;51.67;8.73;;;;;;;;;;5077380;28;20033;-75
2022/04/12 00:49:00;;;;;;;45.83;8.43;;;;;;;;;;5079569;28;20088;-74
2022/04/12 00:51:26;;;;;;;47.40;9.18;;;;;;;;;;5077305;28;20027;-75
2022/04/12 00:53:52;;;;;;;42.88;10.50;;;;;;;;;;5077489;28;20031;-76
2022/04/12 00:56:18;;;;;;;37.13;8.02;;;;;;;;;;5059595;28;20054;-76
2022/04/12 00:58:48;;;;;;;39.83;8.02;;;;;;;;;;5059430;28;20066;-75
2022/04/12 01:01:13;;;;;;;32.78;7.55;;;;;;;;;;5078422;28;20040;-75
2022/04/12 01:03:39;;;;;;;39.67;7.03;;;;;;;;;;5078274;28;20047;-75
2022/04/12 01:06:05;;;;;;;37.17;8.90;;;;;;;;;;5060585;28;20477;-75
2022/04/12 01:08:31;;;;;;;40.88;8.32;;;;;;;;;;5075116;28;20066;-75
2022/04/12 01:10:59;;;;;;;33.83;8.00;;;;;;;;;;5067148;28;20295;-75
2022/04/12 01:13:24;;;;;;;42.30;9.07;;;;;;;;;;5094713;27;20172;-75
2022/04/12 01:15:50;;;;;;;46.75;9.63;;;;;;;;;;5077761;28;20100;-76
2022/04/12 01:18:16;;;;;;;30.88;8.68;;;;;;;;;;5060566;28;20056;-75
2022/04/12 01:20:41;;;;;;;43.40;9.35;;;;;;;;;;5077273;28;20264;-75
2022/04/12 01:23:14;;;;;;;38.00;8.93;;;;;;;;;;5077680;28;20040;-75
2022/04/12 01:25:40;;;;;;;41.33;9.25;;;;;;;;;;5072343;28;20024;-75
2022/04/12 01:28:08;;;;;;;59.13;10.32;;;;;;;;;;5078008;28;20020;-74
2022/04/12 01:30:33;;;;;;;45.67;10.02;;;;;;;;;;5073080;28;20048;-75
2022/04/12 01:32:59;;;;;;;49.08;9.48;;;;;;;;;;5078678;28;20041;-75
2022/04/12 01:35:24;;;;;;;44.08;9.48;;;;;;;;;;5040797;28;20306;-75
2022/04/12 01:37:50;;;;;;;56.92;9.40;;;;;;;;;;5079838;28;20039;-75
2022/04/12 01:40:15;;;;;;;48.85;9.73;;;;;;;;;;5085218;28;20047;-76
2022/04/12 01:42:41;;;;;;;37.35;10.48;;;;;;;;;;5096386;28;20057;-76
2022/04/12 01:45:08;;;;;;;53.97;10.85;;;;;;;;;;5069159;28;20290;-76
2022/04/12 01:47:34;;;;;;;45.35;10.15;;;;;;;;;;5077523;28;20033;-75
2022/04/12 01:50:00;;;;;;;48.10;9.85;;;;;;;;;;5062584;28;20243;-75
2022/04/12 01:52:25;;;;;;;48.20;11.13;;;;;;;;;;5076840;28;20017;-76
2022/04/12 01:54:51;;;;;;;46.67;10.80;;;;;;;;;;5083580;28;20024;-76
2022/04/12 01:57:16;;;;;;;47.60;10.55;;;;;;;;;;5058374;28;20208;-75
2022/04/12 01:59:45;;;;;;;38.30;9.93;;;;;;;;;;5083683;28;20047;-75
2022/04/12 02:02:10;;;;;;;50.95;10.82;;;;;;;;;;5078278;28;20024;-76
2022/04/12 02:04:36;;;;;;;48.58;10.52;;;;;;;;;;5079516;28;20092;-75
2022/04/12 02:07:01;;;;;;;65.95;11.85;;;;;;;;;;5081999;28;20036;-75
2022/04/12 02:09:27;;;;;;;54.95;11.63;;;;;;;;;;5078590;28;20088;-74
2022/04/12 02:11:55;;;;;;;60.53;14.32;;;;;;;;;;5082437;28;20074;-75
2022/04/12 02:14:22;;;;;;;64.38;12.45;;;;;;;;;;5083345;28;20040;-75
2022/04/12 02:16:48;;;;;;;56.83;12.45;;;;;;;;;;5083367;28;20020;-76
2022/04/12 02:19:13;;;;;;;62.95;14.10;;;;;;;;;;5065560;28;20109;-75
2022/04/12 02:21:39;;;;;;;72.20;14.38;;;;;;;;;;5050628;28;20130;-75
2022/04/12 02:24:05;;;;;;;47.10;13.18;;;;;;;;;;5078667;28;20044;-75
2022/04/12 02:26:30;;;;;;;72.72;14.85;;;;;;;;;;5058236;28;20055;-75
2022/04/12 02:28:56;;;;;;;67.10;14.98;;;;;;;;;;5081973;28;20031;-75
2022/04/12 02:31:21;;;;;;;60.90;15.77;;;;;;;;;;5063641;28;20020;-75
2022/04/12 02:33:47;;;;;;;50.72;14.07;;;;;;;;;;5077212;28;20035;-75
2022/04/12 02:36:12;;;;;;;61.78;14.85;;;;;;;;;;5041584;28;20554;-75
2022/04/12 02:38:38;;;;;;;85.90;16.90;;;;;;;;;;5077626;28;20021;-75
2022/04/12 02:41:03;;;;;;;58.85;14.60;;;;;;;;;;5095649;27;20052;-75
2022/04/12 02:43:29;;;;;;;80.00;16.25;;;;;;;;;;5076625;28;20030;-75
2022/04/12 02:45:54;;;;;;;73.78;15.10;;;;;;;;;;5066853;28;20021;-75
2022/04/12 02:48:20;;;;;;;66.63;15.70;;;;;;;;;;5077422;28;20035;-76
2022/04/12 02:50:47;;;;;;;73.18;14.75;;;;;;;;;;5079155;28;20098;-76
2022/04/12 02:53:13;;;;;;;71.05;14.27;;;;;;;;;;5072658;28;20214;-76
2022/04/12 02:55:39;;;;;;;69.32;15.43;;;;;;;;;;5079808;28;20081;-75
2022/04/12 02:58:04;;;;;;;72.15;16.42;;;;;;;;;;5075987;28;20142;-75
2022/04/12 03:00:30;;;;;;;83.15;16.05;;;;;;;;;;5062568;28;20064;-75
2022/04/12 03:02:56;;;;;;;82.43;16.02;;;;;;;;;;5078726;28;20032;-75
2022/04/12 03:05:21;;;;;;;69.00;15.88;;;;;;;;;;5062306;28;20278;-75
2022/04/12 03:07:47;;;;;;;84.85;17.52;;;;;;;;;;5063498;28;20415;-75
2022/04/12 03:10:12;;;;;;;73.15;15.85;;;;;;;;;;5098014;27;20269;-75
2022/04/12 03:12:38;;;;;;;73.30;17.23;;;;;;;;;;5080708;28;20071;-75
2022/04/12 03:15:06;;;;;;;74.75;16.20;;;;;;;;;;5077688;28;20017;-75
2022/04/12 03:17:31;;;;;;;72.63;16.58;;;;;;;;;;5078039;28;20021;-75
2022/04/12 03:19:56;;;;;;;74.95;16.83;;;;;;;;;;5078184;28;20017;-75
2022/04/12 03:22:22;;;;;;;90.80;16.58;;;;;;;;;;5082133;28;20016;-75
2022/04/12 03:24:47;;;;;;;81.75;16.85;;;;;;;;;;5083062;28;20036;-75
2022/04/12 03:27:13;;;;;;;83.05;17.35;;;;;;;;;;5073601;28;20028;-75
2022/04/12 03:29:39;;;;;;;67.47;17.38;;;;;;;;;;5062102;28;20118;-75
2022/04/12 03:32:05;;;;;;;76.30;17.40;;;;;;;;;;5082246;28;20031;-76
2022/04/12 03:34:31;;;;;;;64.93;16.33;;;;;;;;;;5064167;28;20044;-75
2022/04/12 03:36:58;;;;;;;78.70;17.55;;;;;;;;;;5079715;28;20074;-75
2022/04/12 03:39:25;;;;;;;66.88;16.98;;;;;;;;;;5086026;28;20020;-75
2022/04/12 03:41:52;;;;;;;96.03;17.08;;;;;;;;;;5056223;28;20021;-75
2022/04/12 03:44:18;;;;;;;74.72;16.52;;;;;;;;;;5064368;28;20048;-75
2022/04/12 03:46:43;;;;;;;76.15;18.10;;;;;;;;;;5080584;28;20139;-75
2022/04/12 03:49:10;;;;;;;76.00;16.98;;;;;;;;;;5083951;28;20286;-75
2022/04/12 03:51:36;;;;;;;63.20;16.65;;;;;;;;;;5078400;28;20247;-75
2022/04/12 03:54:04;;;;;;;74.75;17.35;;;;;;;;;;5080496;28;20066;-74
2022/04/12 03:56:29;;;;;;;84.03;16.88;;;;;;;;;;5076534;28;20025;-75
2022/04/12 03:58:58;;;;;;;82.22;17.35;;;;;;;;;;5076031;28;20021;-75
2022/04/12 04:01:28;;;;;;;68.78;18.88;;;;;;;;;;5079003;28;20031;-76
2022/04/12 04:03:55;;;;;;;82.53;19.23;;;;;;;;;;5094705;28;20074;-75
2022/04/12 04:06:21;;;;;;;90.30;17.77;;;;;;;;;;5077573;28;20024;-75
2022/04/12 04:08:47;;;;;;;78.38;17.52;;;;;;;;;;5092941;28;20035;-75
2022/04/12 04:11:12;;;;;;;77.35;17.80;;;;;;;;;;5053696;28;20027;-75
2022/04/12 04:13:38;;;;;;;90.43;17.30;;;;;;;;;;5078717;28;20036;-74
2022/04/12 04:16:05;;;;;;;75.40;16.17;;;;;;;;;;5044861;28;20298;-75
2022/04/12 04:18:31;;;;;;;75.20;17.98;;;;;;;;;;5077013;28;20020;-75
2022/04/12 04:20:56;;;;;;;68.68;16.77;;;;;;;;;;5062846;28;20028;-75
2022/04/12 04:23:22;;;;;;;83.15;18.55;;;;;;;;;;5062291;28;20029;-75
2022/04/12 04:25:48;;;;;;;69.63;18.80;;;;;;;;;;5064577;28;20029;-75
2022/04/12 04:28:13;;;;;;;79.47;19.08;;;;;;;;;;5059428;28;20037;-75
2022/04/12 04:30:44;;;;;;;66.97;16.90;;;;;;;;;;5062231;28;20173;-75
2022/04/12 04:33:10;;;;;;;75.57;17.92;;;;;;;;;;5066473;28;20044;-75
2022/04/12 04:35:36;;;;;;;80.70;17.80;;;;;;;;;;5070891;28;20024;-76
2022/04/12 04:38:01;;;;;;;70.00;16.00;;;;;;;;;;5093356;27;20066;-76
2022/04/12 04:40:27;;;;;;;71.63;16.50;;;;;;;;;;5077436;28;20082;-75
2022/04/12 04:42:53;;;;;;;67.93;16.23;;;;;;;;;;5064728;28;20215;-75
2022/04/12 04:45:19;;;;;;;81.00;16.08;;;;;;;;;;5059999;28;20020;-76
2022/04/12 04:47:56;;;;;;;75.38;14.15;;;;;;;;;;5077974;28;20052;-75
2022/04/12 04:50:24;;;;;;;61.33;16.02;;;;;;;;;;5080315;28;20019;-75
2022/04/12 04:52:50;;;;;;;51.75;13.77;;;;;;;;;;5079638;28;20099;-75
2022/04/12 04:55:17;;;;;;;42.40;14.32;;;;;;;;;;5060774;28;20027;-75
2022/04/12 04:57:44;;;;;;;49.47;14.23;;;;;;;;;;5078942;28;20231;-75
2022/04/12 05:00:15;;;;;;;47.63;14.50;;;;;;;;;;5048682;28;20202;-75
2022/04/12 05:02:43;;;;;;;62.77;14.70;;;;;;;;;;5080376;28;20286;-75
2022/04/12 05:05:09;;;;;;;61.35;15.15;;;;;;;;;;5077938;28;20031;-75
2022/04/12 05:07:34;;;;;;;50.15;14.80;;;;;;;;;;5060730;28;20044;-75
2022/04/12 05:10:00;;;;;;;51.38;15.75;;;;;;;;;;5081581;28;20183;-76
2022/04/12 05:12:25;;;;;;;61.30;17.15;;;;;;;;;;5063411;28;20051;-76
2022/04/12 05:14:51;;;;;;;64.90;15.95;;;;;;;;;;5072913;28;20187;-75
2022/04/12 05:17:27;;;;;;;66.03;15.90;;;;;;;;;;5065474;28;20024;-75
2022/04/12 05:19:52;;;;;;;61.75;14.43;;;;;;;;;;5080860;28;20057;-75
2022/04/12 05:22:19;;;;;;;66.75;15.35;;;;;;;;;;5084991;28;20016;-75
2022/04/12 05:24:45;;;;;;;67.45;15.93;;;;;;;;;;5070751;28;20045;-75
2022/04/12 05:27:11;;;;;;;52.00;13.98;;;;;;;;;;5082994;28;20035;-75
2022/04/12 05:29:37;;;;;;;51.38;13.82;;;;;;;;;;5049654;28;20028;-75
2022/04/12 05:32:03;;;;;;;66.47;15.32;;;;;;;;;;5085536;28;20024;-75
2022/04/12 05:34:28;;;;;;;64.22;15.35;;;;;;;;;;5079088;28;20024;-74
2022/04/12 05:36:54;;;;;;;60.75;14.63;;;;;;;;;;5048450;28;20024;-75
2022/04/12 05:39:19;;;;;;;74.68;14.50;;;;;;;;;;5061650;28;20048;-75
2022/04/12 05:41:45;;;;;;;66.28;14.05;;;;;;;;;;5077995;28;20033;-75
2022/04/12 05:44:10;;;;;;;63.22;13.95;;;;;;;;;;5092384;27;20044;-75
2022/04/12 05:46:36;;;;;;;69.55;12.02;;;;;;;;;;5064168;28;20055;-76
2022/04/12 05:49:01;;;;;;;55.25;12.90;;;;;;;;;;5068579;28;20044;-75
2022/04/12 05:51:27;;;;;;;54.47;10.90;;;;;;;;;;5058004;28;20092;-75
2022/04/12 05:53:52;;;;;;;45.50;10.10;;;;;;;;;;5080976;28;20278;-74
2022/04/12 05:56:18;;;;;;;45.55;10.38;;;;;;;;;;5072575;28;20016;-75
2022/04/12 05:58:43;;;;;;;32.58;9.38;;;;;;;;;;5052931;28;20028;-75
2022/04/12 06:01:09;;;;;;;45.17;9.85;;;;;;;;;;5079476;28;20194;-75
2022/04/12 06:03:34;;;;;;;27.17;8.80;;;;;;;;;;5063213;28;20066;-75
2022/04/12 06:06:00;;;;;;;43.58;9.48;;;;;;;;;;5098048;28;20052;-75
2022/04/12 06:08:25;;;;;;;56.55;9.25;;;;;;;;;;5098647;28;20009;-75
2022/04/12 06:10:52;;;;;;;36.22;8.32;;;;;;;;;;5064539;28;20095;-76
2022/04/12 06:13:18;;;;;;;37.67;8.57;;;;;;;;;;5081812;28;20013;-75
2022/04/12 06:15:43;;;;;;;43.75;9.18;;;;;;;;;;5080979;28;20028;-75
2022/04/12 06:18:10;;;;;;;30.10;8.93;;;;;;;;;;5078891;28;20071;-76
2022/04/12 06:20:36;;;;;;;32.95;9.05;;;;;;;;;;5095704;28;20096;-75
2022/04/12 06:23:03;;;;;;;44.05;11.48;;;;;;;;;;5082469;28;20045;-76
2022/04/12 06:25:28;;;;;;;30.25;8.80;;;;;;;;;;5096515;27;20028;-75
2022/04/12 06:27:54;;;;;;;32.67;7.93;;;;;;;;;;5064579;28;20231;-75
2022/04/12 06:30:27;;;;;;;44.75;10.80;;;;;;;;;;5074111;28;20040;-75
2022/04/12 06:32:53;;;;;;;32.92;9.32;;;;;;;;;;5070760;28;20633;-80
2022/04/12 06:35:20;;;;;;;42.00;9.45;;;;;;;;;;5077443;28;20037;-80
2022/04/12 06:37:47;;;;;;;43.58;9.35;;;;;;;;;;5080636;28;20171;-81
2022/04/12 06:40:15;;;;;;;33.40;8.40;;;;;;;;;;5080160;28;20017;-80
2022/04/12 06:42:41;;;;;;;30.30;8.55;;;;;;;;;;5079144;28;20021;-80
2022/04/12 06:45:08;;;;;;;35.78;10.15;;;;;;;;;;5080577;28;20096;-80
2022/04/12 06:47:34;;;;;;;33.92;9.07;;;;;;;;;;5069815;28;20020;-80
2022/04/12 06:50:00;;;;;;;26.67;8.75;;;;;;;;;;5085146;28;20075;-80
2022/04/12 06:52:25;;;;;;;32.35;9.13;;;;;;;;;;5094520;27;20081;-80
2022/04/12 06:54:51;;;;;;;37.65;10.07;;;;;;;;;;5082253;28;20016;-80
2022/04/12 06:57:17;;;;;;;30.98;9.25;;;;;;;;;;5043759;28;20016;-80
2022/04/12 06:59:43;;;;;;;38.95;9.68;;;;;;;;;;5063567;28;20369;-81
2022/04/12 07:02:09;;;;;;;27.77;9.25;;;;;;;;;;5082130;28;20019;-80
2022/04/12 07:04:35;;;;;;;44.70;10.20;;;;;;;;;;5079909;28;20048;-80
2022/04/12 07:07:01;;;;;;;32.08;9.70;;;;;;;;;;5072615;28;20021;-80
2022/04/12 07:09:28;;;;;;;32.78;10.05;;;;;;;;;;5074398;28;20027;-80
2022/04/12 07:11:55;;;;;;;35.40;10.63;;;;;;;;;;5097249;27;20077;-80
2022/04/12 07:14:21;;;;;;;37.95;11.02;;;;;;;;;;5078789;28;20019;-80
2022/04/12 07:16:47;;;;;;;40.38;11.45;;;;;;;;;;5085498;28;20020;-80
2022/04/12 07:19:12;;;;;;;34.35;11.23;;;;;;;;;;5080610;28;20028;-80
2022/04/12 07:21:39;;;;;;;39.97;13.02;;;;;;;;;;5086714;28;20021;-80
2022/04/12 07:24:05;;;;;;;36.72;11.93;;;;;;;;;;5076024;28;20044;-81
2022/04/12 07:26:31;;;;;;;33.28;11.77;;;;;;;;;;5079235;28;20027;-82
2022/04/12 07:28:57;;;;;;;34.20;11.88;;;;;;;;;;5061880;28;20020;-82
2022/04/12 07:31:22;;;;;;;41.70;11.55;;;;;;;;;;5080534;28;20094;-80
2022/04/12 07:33:48;;;;;;;28.92;11.05;;;;;;;;;;5075293;28;20032;-80
2022/04/12 07:36:14;;;;;;;22.95;11.52;;;;;;;;;;5076498;28;20012;-81
2022/04/12 07:38:41;;;;;;;34.10;11.02;;;;;;;;;;5081865;28;20059;-79
2022/04/12 07:41:07;;;;;;;37.45;11.68;;;;;;;;;;5081121;28;20073;-80
2022/04/12 07:43:32;;;;;;;39.78;12.25;;;;;;;;;;5079039;28;20043;-79
2022/04/12 07:45:58;;;;;;;42.65;11.98;;;;;;;;;;5079632;28;20048;-80
2022/04/12 07:48:23;;;;;;;34.20;12.32;;;;;;;;;;5081148;28;20016;-79
2022/04/12 07:50:49;;;;;;;32.90;12.15;;;;;;;;;;5079813;28;20495;-79
2022/04/12 07:53:14;;;;;;;37.60;11.93;;;;;;;;;;5080511;28;20012;-80
2022/04/12 07:55:40;;;;;;;37.67;12.77;;;;;;;;;;5079458;28;20138;-79
2022/04/12 07:58:05;;;;;;;41.42;13.20;;;;;;;;;;5081658;28;20074;-79
2022/04/12 08:00:31;;;;;;;32.58;12.05;;;;;;;;;;5079063;28;20047;-78
2022/04/12 08:02:57;;;;;;;28.27;11.80;;;;;;;;;;5097149;28;20279;-79
2022/04/12 08:05:23;;;;;;;35.00;13.18;;;;;;;;;;5079690;28;20027;-79
2022/04/12 08:07:49;;;;;;;28.95;12.90;;;;;;;;;;5082400;28;20146;-79
2022/04/12 08:10:18;;;;;;;40.97;13.02;;;;;;;;;;5081464;28;20026;-79
2022/04/12 08:12:45;;;;;;;46.83;13.73;;;;;;;;;;5077191;28;20095;-79
2022/04/12 08:15:11;;;;;;;28.80;11.93;;;;;;;;;;5079246;28;20166;-79
2022/04/12 08:17:37;;;;;;;32.25;12.27;;;;;;;;;;5077071;28;20168;-79
2022/04/12 08:20:05;;;;;;;43.35;12.68;;;;;;;;;;5081628;28;20047;-79
2022/04/12 08:22:34;;;;;;;38.90;11.95;;;;;;;;;;5077667;28;20029;-79
2022/04/12 08:25:00;;;;;;;36.50;14.05;;;;;;;;;;5073518;28;20033;-79
2022/04/12 08:27:26;;;;;;;39.38;14.10;;;;;;;;;;5078936;28;20167;-79
2022/04/12 08:29:52;;;;;;;35.88;13.02;;;;;;;;;;5080769;28;20179;-79
2022/04/12 08:32:18;;;;;;;31.02;13.05;;;;;;;;;;5075472;28;20023;-79
2022/04/12 08:34:44;;;;;;;27.95;13.60;;;;;;;;;;5093960;28;20025;-79
2022/04/12 08:37:10;;;;;;;37.58;13.10;;;;;;;;;;5080697;28;20037;-80
2022/04/12 08:39:36;;;;;;;43.33;14.10;;;;;;;;;;5081147;28;20349;-79
2022/04/12 08:42:03;;;;;;;38.42;13.65;;;;;;;;;;5058976;28;20039;-79
2022/04/12 08:44:30;;;;;;;38.65;14.00;;;;;;;;;;5078913;28;20013;-79
2022/04/12 08:46:56;;;;;;;38.70;14.25;;;;;;;;;;5091511;28;20062;-78
2022/04/12 08:49:27;;;;;;;36.50;12.70;;;;;;;;;;5068932;28;20015;-79
2022/04/12 08:51:53;;;;;;;40.83;14.35;;;;;;;;;;5078782;28;20017;-79
2022/04/12 08:54:22;;;;;;;40.65;14.00;;;;;;;;;;5081198;28;20039;-79
2022/04/12 08:56:49;;;;;;;27.83;12.50;;;;;;;;;;5080914;28;20536;-79
2022/04/12 08:59:16;;;;;;;33.95;13.48;;;;;;;;;;5083023;28;20028;-79
2022/04/12 09:01:42;;;;;;;42.97;14.10;;;;;;;;;;5085000;28;20235;-78
2022/04/12 09:04:09;;;;;;;39.47;13.50;;;;;;;;;;5083761;28;20036;-79
2022/04/12 09:06:35;;;;;;;38.42;12.70;;;;;;;;;;5083338;28;20028;-79
2022/04/12 09:09:11;;;;;;;29.17;12.68;;;;;;;;;;5081799;28;20021;-79
2022/04/12 09:11:41;;;;;;;25.70;12.02;;;;;;;;;;5072616;28;20271;-79
2022/04/12 09:14:06;;;;;;;29.55;11.20;;;;;;;;;;5082509;28;20024;-78
2022/04/12 09:16:33;;;;;;;27.50;10.32;;;;;;;;;;5083785;28;20017;-78
2022/04/12 09:18:59;;;;;;;24.00;10.68;;;;;;;;;;5083301;28;20021;-78
2022/04/12 09:21:27;;;;;;;25.77;10.73;;;;;;;;;;5066432;28;20096;-79
2022/04/12 09:23:59;;;;;;;34.17;10.52;;;;;;;;;;5084359;28;20302;-78
2022/04/12 09:26:30;;;;;;;20.42;9.10;;;;;;;;;;5067524;28;20028;-79
2022/04/12 09:28:58;;;;;;;23.75;9.85;;;;;;;;;;5083840;28;20028;-79
2022/04/12 09:31:25;;;;;;;29.75;10.30;;;;;;;;;;5083803;28;20032;-79
2022/04/12 09:33:52;;;;;;;27.88;10.95;;;;;;;;;;5083262;28;20019;-78
2022/04/12 09:36:18;;;;;;;26.63;10.77;;;;;;;;;;5060583;28;20045;-79
2022/04/12 09:38:46;;;;;;;23.17;11.57;;;;;;;;;;5083620;28;20032;-79
2022/04/12 09:41:11;;;;;;;25.42;11.38;;;;;;;;;;5083588;28;20028;-78
2022/04/12 09:44:10;;;;;;;41.40;12.20;;;;;;;;;;5082487;28;20036;-79
2022/04/12 09:46:36;;;;;;;34.53;12.48;;;;;;;;;;5072552;28;20029;-78
2022/04/12 09:49:03;;;;;;;30.80;13.07;;;;;;;;;;5083020;28;20040;-79
2022/04/12 09:51:28;;;;;;;34.58;13.38;;;;;;;;;;5081292;28;20009;-79
2022/04/12 09:53:54;;;;;;;34.53;14.13;;;;;;;;;;5083907;28;20024;-79
2022/04/12 09:56:24;;;;;;;33.60;14.70;;;;;;;;;;5078084;28;20021;-79
2022/04/12 09:58:58;;;;;;;39.22;18.55;;;;;;;;;;5080564;28;20033;-79
2022/04/12 10:01:25;;;;;;;57.35;22.10;;;;;;;;;;5081988;28;20040;-79
2022/04/12 10:03:56;;;;;;;75.22;27.98;;;;;;;;;;5075382;28;20032;-79
2022/04/12 10:06:24;;;;;;;73.40;32.28;;;;;;;;;;5081827;28;20020;-79
2022/04/12 10:08:55;;;;;;;78.05;34.10;;;;;;;;;;5083908;28;20028;-78
2022/04/12 10:11:22;;;;;;;81.40;32.83;;;;;;;;;;5082193;28;20017;-78
2022/04/12 10:13:48;;;;;;;76.55;33.45;;;;;;;;;;5080120;28;20125;-78
2022/04/12 10:16:16;;;;;;;93.75;35.58;;;;;;;;;;5083265;28;20279;-78
2022/04/12 10:18:43;;;;;;;86.18;35.60;;;;;;;;;;5082275;28;20024;-78
2022/04/12 10:21:11;;;;;;;92.47;39.40;;;;;;;;;;5082085;28;20016;-78
2022/04/12 10:23:39;;;;;;;111.57;38.58;;;;;;;;;;5083123;28;20051;-78
2022/04/12 10:26:06;;;;;;;107.13;40.40;;;;;;;;;;5092724;28;20025;-79
2022/04/12 10:28:32;;;;;;;99.38;40.67;;;;;;;;;;5083320;28;20091;-78
2022/04/12 10:31:12;;;;;;;104.68;42.75;;;;;;;;;;5076417;28;20020;-79
2022/04/12 10:33:38;;;;;;;105.22;43.53;;;;;;;;;;5080519;28;20024;-79
2022/04/12 10:36:06;;;;;;;108.15;43.22;;;;;;;;;;5097990;28;20028;-78
2022/04/12 10:38:39;;;;;;;130.30;45.25;;;;;;;;;;5083017;28;20271;-78
2022/04/12 10:41:30;;;;;;;112.28;41.95;;;;;;;;;;5080393;28;20035;-78
2022/04/12 10:43:57;;;;;;;109.25;41.78;;;;;;;;;;5076442;28;20012;-78
2022/04/12 10:46:22;;;;;;;112.35;43.67;;;;;;;;;;5075331;28;20024;-79
2022/04/12 10:48:55;;;;;;;110.80;43.95;;;;;;;;;;5082211;28;20032;-78
2022/04/12 10:51:57;;;;;;;122.28;46.65;;;;;;;;;;5095082;27;20023;-79
2022/04/12 10:54:34;;;;;;;125.65;45.70;;;;;;;;;;5065079;28;20055;-79
2022/04/12 10:57:18;;;;;;;139.70;46.38;;;;;;;;;;5078953;28;20032;-79
2022/04/12 11:00:08;;;;;;;131.15;45.30;;;;;;;;;;5078573;28;20020;-78
2022/04/12 11:03:00;;;;;;;129.73;45.75;;;;;;;;;;5081215;28;20021;-78
2022/04/12 11:05:44;;;;;;;135.52;47.42;;;;;;;;;;5078175;28;20107;-79
2022/04/12 11:08:15;;;;;;;121.63;46.17;;;;;;;;;;5095181;28;20086;-78
2022/04/12 11:10:50;;;;;;;139.65;47.13;;;;;;;;;;5077563;28;20021;-77
2022/04/12 11:13:20;;;;;;;125.55;46.45;;;;;;;;;;5094786;28;20298;-78
2022/04/12 11:15:54;;;;;;;117.00;47.20;;;;;;;;;;5074956;28;20021;-77
2022/04/12 11:18:19;;;;;;;127.03;45.58;;;;;;;;;;5085819;28;20032;-78
2022/04/12 11:20:58;;;;;;;132.05;44.75;;;;;;;;;;5077829;28;20067;-79
2022/04/12 11:23:44;;;;;;;125.88;44.78;;;;;;;;;;5080520;28;20046;-78
2022/04/12 11:26:36;;;;;;;122.53;43.25;;;;;;;;;;5078184;28;20315;-79
2022/04/12 11:29:07;;;;;;;105.13;42.45;;;;;;;;;;5081314;28;20317;-79
2022/04/12 11:31:36;;;;;;;120.28;45.15;;;;;;;;;;5075285;28;20028;-79
2022/04/12 11:34:02;;;;;;;125.35;43.90;;;;;;;;;;5080799;28;20191;-79
2022/04/12 11:36:28;;;;;;;135.32;49.25;;;;;;;;;;5093933;28;20465;-78
2022/04/12 11:38:56;;;;;;;132.55;49.53;;;;;;;;;;5075668;28;20029;-79
2022/04/12 11:41:21;;;;;;;114.40;45.90;;;;;;;;;;5080929;28;20083;-78
2022/04/12 11:43:47;;;;;;;110.47;45.97;;;;;;;;;;5082851;28;20043;-79
2022/04/12 11:46:17;;;;;;;101.70;43.17;;;;;;;;;;5069715;28;20028;-79
2022/04/12 11:48:43;;;;;;;111.65;41.92;;;;;;;;;;5079677;28;20052;-79
2022/04/12 11:51:09;;;;;;;99.88;40.92;;;;;;;;;;5095115;28;20041;-79
2022/04/12 11:53:46;;;;;;;90.72;38.67;;;;;;;;;;5072217;28;20124;-79
2022/04/12 11:56:12;;;;;;;100.07;40.33;;;;;;;;;;5072007;28;20037;-79
2022/04/12 11:58:37;;;;;;;108.80;40.70;;;;;;;;;;5096681;28;20089;-79
2022/04/12 12:01:03;;;;;;;83.88;37.47;;;;;;;;;;5080557;28;20029;-79
2022/04/12 12:03:30;;;;;;;90.18;37.83;;;;;;;;;;5074756;28;20031;-75
2022/04/12 12:05:57;;;;;;;93.00;37.60;;;;;;;;;;5064035;28;20044;-74
2022/04/12 12:08:23;;;;;;;82.30;34.17;;;;;;;;;;5096735;28;20016;-74
2022/04/12 12:10:52;;;;;;;85.90;35.97;;;;;;;;;;5096713;28;20039;-75
2022/04/12 12:13:22;;;;;;;98.95;36.35;;;;;;;;;;5083765;28;20096;-74
2022/04/12 12:15:47;;;;;;;96.63;36.25;;;;;;;;;;5078145;28;20109;-74
2022/04/12 12:18:15;;;;;;;82.95;35.50;;;;;;;;;;5096678;28;20020;-74
2022/04/12 12:20:41;;;;;;;87.95;35.00;;;;;;;;;;5056715;28;20027;-74
2022/04/12 12:23:10;;;;;;;92.97;37.80;;;;;;;;;;5080612;28;20032;-74
2022/04/12 12:25:48;;;;;;;89.70;35.67;;;;;;;;;;5077936;28;20017;-74
2022/04/12 12:28:20;;;;;;;102.53;35.80;;;;;;;;;;5074042;28;20402;-74
2022/04/12 12:30:56;;;;;;;82.43;35.00;;;;;;;;;;5090894;28;20540;-74
2022/04/12 12:33:35;;;;;;;76.78;33.28;;;;;;;;;;5079070;28;20020;-74
2022/04/12 12:36:01;;;;;;;85.43;31.23;;;;;;;;;;5074437;28;20078;-75
2022/04/12 12:38:27;;;;;;;80.00;31.63;;;;;;;;;;5062920;28;20182;-74
2022/04/12 12:40:57;;;;;;;76.90;29.63;;;;;;;;;;5045034;28;20013;-74
2022/04/12 12:43:25;;;;;;;64.63;29.65;;;;;;;;;;5076678;28;20024;-74
2022/04/12 12:45:51;;;;;;;70.18;28.00;;;;;;;;;;5080679;28;20028;-74
2022/04/12 12:48:17;;;;;;;71.68;28.52;;;;;;;;;;5085196;28;20084;-74
2022/04/12 12:50:44;;;;;;;68.80;27.27;;;;;;;;;;5062027;28;20023;-74
2022/04/12 12:53:12;;;;;;;60.30;26.33;;;;;;;;;;5078502;28;20064;-74
2022/04/12 12:55:51;;;;;;;61.90;25.02;;;;;;;;;;5080131;28;20017;-74
2022/04/12 12:58:29;;;;;;;66.40;25.88;;;;;;;;;;5092811;28;20045;-74
2022/04/12 13:01:04;;;;;;;59.55;26.35;;;;;;;;;;5077891;28;20016;-74
2022/04/12 13:03:29;;;;;;;60.90;25.42;;;;;;;;;;5071662;28;20021;-74
2022/04/12 13:05:59;;;;;;;75.15;27.15;;;;;;;;;;5073389;28;20044;-75
2022/04/12 13:08:32;;;;;;;66.70;26.65;;;;;;;;;;5066650;28;20025;-75
2022/04/12 13:10:58;;;;;;;54.60;26.10;;;;;;;;;;5059027;28;20497;-75
2022/04/12 13:13:25;;;;;;;63.05;24.80;;;;;;;;;;5068153;28;20531;-81
2022/04/12 13:15:50;;;;;;;64.95;26.90;;;;;;;;;;5067454;28;20023;-80
2022/04/12 13:18:16;;;;;;;63.85;26.73;;;;;;;;;;5062014;28;20036;-79
2022/04/12 13:20:41;;;;;;;69.63;28.83;;;;;;;;;;5067314;28;20116;-79
2022/04/12 13:23:07;;;;;;;69.05;28.33;;;;;;;;;;5066685;28;20182;-79
2022/04/12 13:25:33;;;;;;;78.63;28.30;;;;;;;;;;5062581;28;20711;-80
2022/04/12 13:27:59;;;;;;;80.20;30.67;;;;;;;;;;5065749;28;20375;-79
2022/04/12 13:30:25;;;;;;;83.32;29.92;;;;;;;;;;5068004;28;20025;-80
2022/04/12 13:32:51;;;;;;;82.57;30.02;;;;;;;;;;5068116;28;20032;-80
2022/04/12 13:35:19;;;;;;;82.25;28.73;;;;;;;;;;5083849;28;20469;-80
2022/04/12 13:37:46;;;;;;;73.40;28.60;;;;;;;;;;5067666;28;20024;-79
2022/04/12 13:40:12;;;;;;;68.05;27.42;;;;;;;;;;5069593;28;20478;-80
2022/04/12 13:42:45;;;;;;;76.45;27.48;;;;;;;;;;5066853;28;20124;-79
2022/04/12 13:45:10;;;;;;;;;;;;;;;;;;5070276;28;20032;-79
2022/04/12 13:47:36;;;;;;;66.50;25.65;;;;;;;;;;5070542;28;19916;-80
2022/04/12 13:50:02;;;;;;;77.05;27.80;;;;;;;;;;5071057;28;20024;-79
2022/04/12 13:52:27;;;;;;;75.05;28.52;;;;;;;;;;5052167;28;20036;-79
2022/04/12 13:54:53;;;;;;;79.88;28.98;;;;;;;;;;5069101;28;20040;-79
2022/04/12 13:57:19;;;;;;;72.55;27.90;;;;;;;;;;5070002;28;20406;-80
2022/04/12 13:59:45;;;;;;;70.25;28.90;;;;;;;;;;5086255;28;20029;-79
2022/04/12 14:02:11;;;;;;;74.35;30.08;;;;;;;;;;5068141;28;20479;-79
2022/04/12 14:04:36;;;;;;;83.05;28.92;;;;;;;;;;5069185;28;20074;-79
2022/04/12 14:07:02;;;;;;;76.70;31.00;;;;;;;;;;5079422;28;20150;-80
2022/04/12 14:09:30;;;;;;;76.40;29.20;;;;;;;;;;5070341;28;20060;-80
2022/04/12 14:11:56;;;;;;;80.03;29.30;;;;;;;;;;5070862;28;20096;-79
2022/04/12 14:14:22;;;;;;;89.45;32.03;;;;;;;;;;5050176;28;20506;-80
2022/04/12 14:16:49;;;;;;;89.15;32.08;;;;;;;;;;5066257;28;20043;-80
2022/04/12 14:19:15;;;;;;;89.53;31.90;;;;;;;;;;5068780;28;20052;-80
2022/04/12 14:21:41;;;;;;;96.57;31.90;;;;;;;;;;5066049;28;20067;-81